Main page
METAR-TAF:

METAR-TAF

Airports :

Southampton Airport

Southampton, England

latitude: 50-54N, longitude: 001-24W, elevation: 9 m

Current weather observation

The report was made 19 hours and 16 minutes ago, at 11:20 UTC
Wind 5 kt from the Southwest, varying between South and West
Temperature 9°C
Humidity 93%
Pressure 1016 hPa
Visibility: 3000 m
Broken clouds at a height of 500 ft
light rain, mist

METAR: EGHI 161120Z 23005KT 190V280 3000 -RA BR BKN005 09/08 Q1016

Time: 06:36 (06:36 UTC)

Forecast

The report was made 19 hours and 38 minutes ago, at 10:58 UTC
Forecast valid from 16 at 12 UTC to 16 at 21 UTC
Wind 7 kt from the West/Northwest
Visibility 10 km or more
Broken clouds at a height of 600 ft
Becoming
from 16 at 12 UTC to 16 at 14 UTC
Scattered clouds at a height of 2500 ft

TAF: EGHI 161058Z 1612/1621 30007KT 9999 BKN006 BECMG 1612/1614 SCT025

Weather observations and forecasts of more than 4000 airports (METAR and TAF reports).

The available stations are represented by yellow and red dots on the map.

Hover mouse over dot to see the name of the station.

Then click to see weather observations and forecasts.

To change the map : click on the green buttons with a black cross to zoom in, on the green button with a dash to zoom out, or on the green arrows for adjacent maps.


METAR-TAF: